sensor_id;sensor_type;location;lat;lon;timestamp;P1;durP1;ratioP1;P2;durP2;ratioP2
30533;SDS011;17318;52.390;9.754;2022-12-07T00:01:11;34.92;;;15.25;;
30533;SDS011;17318;52.390;9.754;2022-12-07T00:03:39;29.13;;;15.15;;
30533;SDS011;17318;52.390;9.754;2022-12-07T00:06:06;30.33;;;15.35;;
30533;SDS011;17318;52.390;9.754;2022-12-07T00:08:33;32.78;;;15.23;;
30533;SDS011;17318;52.390;9.754;2022-12-07T00:11:03;31.63;;;14.57;;
30533;SDS011;17318;52.390;9.754;2022-12-07T00:13:33;28.42;;;14.88;;
30533;SDS011;17318;52.390;9.754;2022-12-07T00:16:04;30.95;;;13.52;;
30533;SDS011;17318;52.390;9.754;2022-12-07T00:18:31;33.83;;;14.95;;
30533;SDS011;17318;52.390;9.754;2022-12-07T00:21:13;31.88;;;14.50;;
30533;SDS011;17318;52.390;9.754;2022-12-07T00:23:41;32.03;;;15.15;;
30533;SDS011;17318;52.390;9.754;2022-12-07T00:26:09;32.80;;;14.30;;
30533;SDS011;17318;52.390;9.754;2022-12-07T00:29:03;33.90;;;16.10;;
30533;SDS011;17318;52.390;9.754;2022-12-07T00:31:31;33.35;;;14.98;;
30533;SDS011;17318;52.390;9.754;2022-12-07T00:34:00;29.13;;;14.70;;
30533;SDS011;17318;52.390;9.754;2022-12-07T00:36:26;28.90;;;14.13;;
30533;SDS011;17318;52.390;9.754;2022-12-07T00:38:53;67.85;;;32.97;;
30533;SDS011;17318;52.390;9.754;2022-12-07T00:41:20;86.45;;;41.97;;
30533;SDS011;17318;52.390;9.754;2022-12-07T00:43:49;28.80;;;15.57;;
30533;SDS011;17318;52.390;9.754;2022-12-07T00:46:15;28.15;;;15.10;;
30533;SDS011;17318;52.390;9.754;2022-12-07T00:48:42;32.38;;;15.13;;
30533;SDS011;17318;52.390;9.754;2022-12-07T00:51:09;27.30;;;13.52;;
30533;SDS011;17318;52.390;9.754;2022-12-07T00:53:36;30.42;;;13.30;;
30533;SDS011;17318;52.390;9.754;2022-12-07T00:56:11;24.52;;;12.63;;
30533;SDS011;17318;52.390;9.754;2022-12-07T00:58:41;28.08;;;14.10;;
30533;SDS011;17318;52.390;9.754;2022-12-07T01:01:07;24.45;;;13.40;;
30533;SDS011;17318;52.390;9.754;2022-12-07T01:03:34;24.90;;;13.93;;
30533;SDS011;17318;52.390;9.754;2022-12-07T01:06:00;25.95;;;12.85;;
30533;SDS011;17318;52.390;9.754;2022-12-07T01:08:28;33.88;;;15.68;;
30533;SDS011;17318;52.390;9.754;2022-12-07T01:13:27;30.55;;;14.38;;
30533;SDS011;17318;52.390;9.754;2022-12-07T01:15:55;24.50;;;13.02;;
30533;SDS011;17318;52.390;9.754;2022-12-07T01:18:24;24.05;;;13.07;;
30533;SDS011;17318;52.390;9.754;2022-12-07T01:23:27;26.98;;;13.95;;
30533;SDS011;17318;52.390;9.754;2022-12-07T01:25:57;28.17;;;13.43;;
30533;SDS011;17318;52.390;9.754;2022-12-07T01:28:24;23.83;;;13.75;;
30533;SDS011;17318;52.390;9.754;2022-12-07T01:30:57;29.48;;;15.57;;
30533;SDS011;17318;52.390;9.754;2022-12-07T01:33:28;27.67;;;14.50;;
30533;SDS011;17318;52.390;9.754;2022-12-07T01:36:00;30.55;;;15.55;;
30533;SDS011;17318;52.390;9.754;2022-12-07T01:38:33;28.08;;;15.32;;
30533;SDS011;17318;52.390;9.754;2022-12-07T01:41:00;26.92;;;15.70;;
30533;SDS011;17318;52.390;9.754;2022-12-07T01:43:28;28.90;;;15.40;;
30533;SDS011;17318;52.390;9.754;2022-12-07T01:45:55;29.00;;;15.77;;
30533;SDS011;17318;52.390;9.754;2022-12-07T01:48:36;27.67;;;15.25;;
30533;SDS011;17318;52.390;9.754;2022-12-07T01:51:06;26.45;;;14.27;;
30533;SDS011;17318;52.390;9.754;2022-12-07T01:53:37;27.65;;;14.77;;
30533;SDS011;17318;52.390;9.754;2022-12-07T01:56:06;30.20;;;14.63;;
30533;SDS011;17318;52.390;9.754;2022-12-07T01:58:36;26.02;;;14.32;;
30533;SDS011;17318;52.390;9.754;2022-12-07T02:01:02;29.15;;;14.68;;
30533;SDS011;17318;52.390;9.754;2022-12-07T02:03:32;27.38;;;14.23;;
30533;SDS011;17318;52.390;9.754;2022-12-07T02:06:02;24.90;;;13.40;;
30533;SDS011;17318;52.390;9.754;2022-12-07T02:08:30;33.00;;;14.35;;
30533;SDS011;17318;52.390;9.754;2022-12-07T02:10:56;24.65;;;13.80;;
30533;SDS011;17318;52.390;9.754;2022-12-07T02:13:23;25.35;;;13.60;;
30533;SDS011;17318;52.390;9.754;2022-12-07T02:18:50;24.48;;;12.77;;
30533;SDS011;17318;52.390;9.754;2022-12-07T02:21:29;26.13;;;13.57;;
30533;SDS011;17318;52.390;9.754;2022-12-07T02:24:13;34.75;;;17.27;;
30533;SDS011;17318;52.390;9.754;2022-12-07T02:27:16;22.23;;;12.25;;
30533;SDS011;17318;52.390;9.754;2022-12-07T02:32:28;27.50;;;14.48;;
30533;SDS011;17318;52.390;9.754;2022-12-07T02:35:06;25.08;;;13.27;;
30533;SDS011;17318;52.390;9.754;2022-12-07T02:37:44;29.13;;;14.63;;
30533;SDS011;17318;52.390;9.754;2022-12-07T02:40:25;23.38;;;13.50;;
30533;SDS011;17318;52.390;9.754;2022-12-07T02:43:09;21.25;;;12.40;;
30533;SDS011;17318;52.390;9.754;2022-12-07T02:45:42;24.77;;;12.15;;
30533;SDS011;17318;52.390;9.754;2022-12-07T02:48:10;24.85;;;13.35;;
30533;SDS011;17318;52.390;9.754;2022-12-07T02:50:38;24.85;;;13.57;;
30533;SDS011;17318;52.390;9.754;2022-12-07T02:53:27;25.35;;;12.65;;
30533;SDS011;17318;52.390;9.754;2022-12-07T02:55:56;25.95;;;12.95;;
30533;SDS011;17318;52.390;9.754;2022-12-07T02:58:28;21.40;;;11.50;;
30533;SDS011;17318;52.390;9.754;2022-12-07T03:03:39;19.63;;;11.60;;
30533;SDS011;17318;52.390;9.754;2022-12-07T03:11:30;29.10;;;12.60;;
30533;SDS011;17318;52.390;9.754;2022-12-07T03:14:19;21.27;;;11.52;;
30533;SDS011;17318;52.390;9.754;2022-12-07T03:17:07;19.55;;;11.57;;
30533;SDS011;17318;52.390;9.754;2022-12-07T03:19:41;20.38;;;11.98;;
30533;SDS011;17318;52.390;9.754;2022-12-07T03:22:10;21.80;;;10.95;;
30533;SDS011;17318;52.390;9.754;2022-12-07T03:24:47;24.70;;;10.75;;
30533;SDS011;17318;52.390;9.754;2022-12-07T03:27:24;19.45;;;11.32;;
30533;SDS011;17318;52.390;9.754;2022-12-07T03:29:54;21.27;;;10.68;;
30533;SDS011;17318;52.390;9.754;2022-12-07T03:32:26;18.67;;;10.68;;
30533;SDS011;17318;52.390;9.754;2022-12-07T03:35:05;20.75;;;10.93;;
30533;SDS011;17318;52.390;9.754;2022-12-07T03:37:42;19.00;;;10.27;;
30533;SDS011;17318;52.390;9.754;2022-12-07T03:40:19;20.77;;;8.40;;
30533;SDS011;17318;52.390;9.754;2022-12-07T03:43:04;19.77;;;8.88;;
30533;SDS011;17318;52.390;9.754;2022-12-07T03:45:41;20.40;;;8.63;;
30533;SDS011;17318;52.390;9.754;2022-12-07T03:54:19;15.32;;;8.10;;
30533;SDS011;17318;52.390;9.754;2022-12-07T03:56:56;20.27;;;8.60;;
30533;SDS011;17318;52.390;9.754;2022-12-07T03:59:23;21.73;;;9.10;;
30533;SDS011;17318;52.390;9.754;2022-12-07T04:01:55;18.50;;;8.65;;
30533;SDS011;17318;52.390;9.754;2022-12-07T04:04:23;20.65;;;8.32;;
30533;SDS011;17318;52.390;9.754;2022-12-07T04:06:50;17.10;;;8.52;;
30533;SDS011;17318;52.390;9.754;2022-12-07T04:09:16;19.95;;;8.60;;
30533;SDS011;17318;52.390;9.754;2022-12-07T04:11:43;13.50;;;7.60;;
30533;SDS011;17318;52.390;9.754;2022-12-07T04:14:08;16.38;;;8.68;;
30533;SDS011;17318;52.390;9.754;2022-12-07T04:16:44;18.80;;;8.63;;
30533;SDS011;17318;52.390;9.754;2022-12-07T04:19:11;15.75;;;7.90;;
30533;SDS011;17318;52.390;9.754;2022-12-07T04:21:37;18.05;;;7.88;;
30533;SDS011;17318;52.390;9.754;2022-12-07T04:24:03;16.25;;;8.93;;
30533;SDS011;17318;52.390;9.754;2022-12-07T04:26:29;17.45;;;8.45;;
30533;SDS011;17318;52.390;9.754;2022-12-07T04:28:55;17.88;;;7.95;;
30533;SDS011;17318;52.390;9.754;2022-12-07T04:31:20;16.77;;;8.38;;
30533;SDS011;17318;52.390;9.754;2022-12-07T04:33:46;15.50;;;9.02;;
30533;SDS011;17318;52.390;9.754;2022-12-07T04:36:11;21.23;;;9.18;;
30533;SDS011;17318;52.390;9.754;2022-12-07T04:38:37;17.23;;;8.02;;
30533;SDS011;17318;52.390;9.754;2022-12-07T04:41:06;20.80;;;9.20;;
30533;SDS011;17318;52.390;9.754;2022-12-07T04:43:33;21.40;;;8.23;;
30533;SDS011;17318;52.390;9.754;2022-12-07T04:45:59;27.05;;;10.10;;
30533;SDS011;17318;52.390;9.754;2022-12-07T04:48:25;15.77;;;8.27;;
30533;SDS011;17318;52.390;9.754;2022-12-07T04:50:51;19.60;;;8.40;;
30533;SDS011;17318;52.390;9.754;2022-12-07T04:53:17;19.67;;;8.40;;
30533;SDS011;17318;52.390;9.754;2022-12-07T04:55:43;16.98;;;8.23;;
30533;SDS011;17318;52.390;9.754;2022-12-07T04:58:09;18.42;;;7.72;;
30533;SDS011;17318;52.390;9.754;2022-12-07T05:00:35;18.63;;;8.60;;
30533;SDS011;17318;52.390;9.754;2022-12-07T05:03:01;18.33;;;8.88;;
30533;SDS011;17318;52.390;9.754;2022-12-07T05:05:27;16.15;;;8.45;;
30533;SDS011;17318;52.390;9.754;2022-12-07T05:07:53;17.67;;;8.43;;
30533;SDS011;17318;52.390;9.754;2022-12-07T05:10:18;19.13;;;7.85;;
30533;SDS011;17318;52.390;9.754;2022-12-07T05:12:44;17.80;;;7.85;;
30533;SDS011;17318;52.390;9.754;2022-12-07T05:15:11;24.40;;;8.52;;
30533;SDS011;17318;52.390;9.754;2022-12-07T05:17:37;18.60;;;8.77;;
30533;SDS011;17318;52.390;9.754;2022-12-07T05:20:03;16.60;;;7.43;;
30533;SDS011;17318;52.390;9.754;2022-12-07T05:22:29;18.50;;;8.35;;
30533;SDS011;17318;52.390;9.754;2022-12-07T05:24:55;15.48;;;7.95;;
30533;SDS011;17318;52.390;9.754;2022-12-07T05:27:21;19.92;;;8.00;;
30533;SDS011;17318;52.390;9.754;2022-12-07T05:29:47;17.38;;;8.52;;
30533;SDS011;17318;52.390;9.754;2022-12-07T05:32:14;14.97;;;7.40;;
30533;SDS011;17318;52.390;9.754;2022-12-07T05:34:39;20.35;;;8.00;;
30533;SDS011;17318;52.390;9.754;2022-12-07T05:37:05;15.70;;;8.27;;
30533;SDS011;17318;52.390;9.754;2022-12-07T05:39:31;18.10;;;8.10;;
30533;SDS011;17318;52.390;9.754;2022-12-07T05:41:56;15.98;;;7.82;;
30533;SDS011;17318;52.390;9.754;2022-12-07T05:44:38;20.13;;;8.60;;
30533;SDS011;17318;52.390;9.754;2022-12-07T05:47:04;19.20;;;8.15;;
30533;SDS011;17318;52.390;9.754;2022-12-07T05:49:29;15.27;;;7.30;;
30533;SDS011;17318;52.390;9.754;2022-12-07T05:51:55;22.80;;;8.48;;
30533;SDS011;17318;52.390;9.754;2022-12-07T05:54:21;13.32;;;6.65;;
30533;SDS011;17318;52.390;9.754;2022-12-07T05:56:47;15.35;;;7.30;;
30533;SDS011;17318;52.390;9.754;2022-12-07T05:59:14;21.67;;;7.60;;
30533;SDS011;17318;52.390;9.754;2022-12-07T06:01:49;12.07;;;6.78;;
30533;SDS011;17318;52.390;9.754;2022-12-07T06:04:16;17.33;;;7.47;;
30533;SDS011;17318;52.390;9.754;2022-12-07T06:06:43;15.80;;;7.18;;
30533;SDS011;17318;52.390;9.754;2022-12-07T06:09:09;13.50;;;6.85;;
30533;SDS011;17318;52.390;9.754;2022-12-07T06:11:35;18.25;;;7.60;;
30533;SDS011;17318;52.390;9.754;2022-12-07T06:14:19;16.20;;;7.05;;
30533;SDS011;17318;52.390;9.754;2022-12-07T06:16:45;15.25;;;6.43;;
30533;SDS011;17318;52.390;9.754;2022-12-07T06:19:11;13.23;;;6.25;;
30533;SDS011;17318;52.390;9.754;2022-12-07T06:21:37;10.45;;;5.97;;
30533;SDS011;17318;52.390;9.754;2022-12-07T06:24:03;12.77;;;5.95;;
30533;SDS011;17318;52.390;9.754;2022-12-07T06:26:29;13.77;;;6.35;;
30533;SDS011;17318;52.390;9.754;2022-12-07T06:28:55;14.35;;;6.15;;
30533;SDS011;17318;52.390;9.754;2022-12-07T06:31:21;13.80;;;5.28;;
30533;SDS011;17318;52.390;9.754;2022-12-07T06:33:47;15.00;;;5.35;;
30533;SDS011;17318;52.390;9.754;2022-12-07T06:36:12;14.48;;;5.55;;
30533;SDS011;17318;52.390;9.754;2022-12-07T06:38:38;13.07;;;5.70;;
30533;SDS011;17318;52.390;9.754;2022-12-07T06:41:04;15.77;;;5.30;;
30533;SDS011;17318;52.390;9.754;2022-12-07T06:43:31;11.80;;;5.15;;
30533;SDS011;17318;52.390;9.754;2022-12-07T06:45:57;13.50;;;4.93;;
30533;SDS011;17318;52.390;9.754;2022-12-07T06:48:23;11.55;;;4.05;;
30533;SDS011;17318;52.390;9.754;2022-12-07T06:50:49;12.00;;;3.85;;
30533;SDS011;17318;52.390;9.754;2022-12-07T06:53:14;13.00;;;4.47;;
30533;SDS011;17318;52.390;9.754;2022-12-07T06:55:40;11.65;;;4.25;;
30533;SDS011;17318;52.390;9.754;2022-12-07T06:58:06;14.55;;;4.60;;
30533;SDS011;17318;52.390;9.754;2022-12-07T07:00:32;11.52;;;4.35;;
30533;SDS011;17318;52.390;9.754;2022-12-07T07:02:59;11.93;;;4.10;;
30533;SDS011;17318;52.390;9.754;2022-12-07T07:05:26;9.95;;;3.63;;
30533;SDS011;17318;52.390;9.754;2022-12-07T07:07:51;8.07;;;3.92;;
30533;SDS011;17318;52.390;9.754;2022-12-07T07:10:17;11.63;;;3.55;;
30533;SDS011;17318;52.390;9.754;2022-12-07T07:12:42;13.90;;;3.70;;
30533;SDS011;17318;52.390;9.754;2022-12-07T07:15:08;17.08;;;3.70;;
30533;SDS011;17318;52.390;9.754;2022-12-07T07:17:34;8.63;;;3.47;;
30533;SDS011;17318;52.390;9.754;2022-12-07T07:20:00;14.55;;;3.70;;
30533;SDS011;17318;52.390;9.754;2022-12-07T07:22:26;11.65;;;4.18;;
30533;SDS011;17318;52.390;9.754;2022-12-07T07:24:52;12.77;;;3.65;;
30533;SDS011;17318;52.390;9.754;2022-12-07T07:27:17;12.55;;;3.72;;
30533;SDS011;17318;52.390;9.754;2022-12-07T07:29:43;9.57;;;3.58;;
30533;SDS011;17318;52.390;9.754;2022-12-07T07:32:09;10.05;;;3.55;;
30533;SDS011;17318;52.390;9.754;2022-12-07T07:34:35;10.48;;;3.08;;
30533;SDS011;17318;52.390;9.754;2022-12-07T07:37:00;13.23;;;4.18;;
30533;SDS011;17318;52.390;9.754;2022-12-07T07:39:26;10.85;;;3.60;;
30533;SDS011;17318;52.390;9.754;2022-12-07T07:41:52;16.65;;;4.95;;
30533;SDS011;17318;52.390;9.754;2022-12-07T07:44:18;15.13;;;4.05;;
30533;SDS011;17318;52.390;9.754;2022-12-07T07:46:44;11.23;;;3.15;;
30533;SDS011;17318;52.390;9.754;2022-12-07T07:49:10;13.07;;;3.60;;
30533;SDS011;17318;52.390;9.754;2022-12-07T07:51:36;5.80;;;3.22;;
30533;SDS011;17318;52.390;9.754;2022-12-07T07:54:03;8.77;;;2.95;;
30533;SDS011;17318;52.390;9.754;2022-12-07T07:56:29;11.75;;;3.58;;
30533;SDS011;17318;52.390;9.754;2022-12-07T07:58:55;14.50;;;3.10;;
30533;SDS011;17318;52.390;9.754;2022-12-07T08:01:20;11.35;;;2.67;;
30533;SDS011;17318;52.390;9.754;2022-12-07T08:03:46;9.88;;;2.05;;
30533;SDS011;17318;52.390;9.754;2022-12-07T08:06:13;8.57;;;3.08;;
30533;SDS011;17318;52.390;9.754;2022-12-07T08:08:38;5.63;;;1.85;;
30533;SDS011;17318;52.390;9.754;2022-12-07T08:11:05;8.55;;;2.50;;
30533;SDS011;17318;52.390;9.754;2022-12-07T08:13:31;4.63;;;2.07;;
30533;SDS011;17318;52.390;9.754;2022-12-07T08:15:57;6.38;;;2.20;;
30533;SDS011;17318;52.390;9.754;2022-12-07T08:18:28;7.43;;;2.28;;
30533;SDS011;17318;52.390;9.754;2022-12-07T08:20:58;4.60;;;2.05;;
30533;SDS011;17318;52.390;9.754;2022-12-07T08:23:25;6.40;;;1.90;;
30533;SDS011;17318;52.390;9.754;2022-12-07T08:25:52;15.23;;;2.90;;
30533;SDS011;17318;52.390;9.754;2022-12-07T08:28:17;7.90;;;1.90;;
30533;SDS011;17318;52.390;9.754;2022-12-07T08:30:43;8.05;;;1.90;;
30533;SDS011;17318;52.390;9.754;2022-12-07T08:33:09;4.43;;;1.70;;
30533;SDS011;17318;52.390;9.754;2022-12-07T08:35:35;12.07;;;1.92;;
30533;SDS011;17318;52.390;9.754;2022-12-07T08:38:01;10.63;;;2.15;;
30533;SDS011;17318;52.390;9.754;2022-12-07T08:40:27;5.13;;;1.98;;
30533;SDS011;17318;52.390;9.754;2022-12-07T08:42:53;8.68;;;1.80;;
30533;SDS011;17318;52.390;9.754;2022-12-07T08:45:20;5.20;;;1.55;;
30533;SDS011;17318;52.390;9.754;2022-12-07T08:47:50;15.23;;;2.30;;
30533;SDS011;17318;52.390;9.754;2022-12-07T08:50:49;8.25;;;2.05;;
30533;SDS011;17318;52.390;9.754;2022-12-07T08:53:16;8.75;;;1.67;;
30533;SDS011;17318;52.390;9.754;2022-12-07T08:55:42;6.47;;;2.53;;
30533;SDS011;17318;52.390;9.754;2022-12-07T08:58:12;9.68;;;1.63;;
30533;SDS011;17318;52.390;9.754;2022-12-07T09:00:37;4.75;;;1.55;;
30533;SDS011;17318;52.390;9.754;2022-12-07T09:03:03;5.13;;;1.42;;
30533;SDS011;17318;52.390;9.754;2022-12-07T09:05:29;6.57;;;1.23;;
30533;SDS011;17318;52.390;9.754;2022-12-07T09:07:55;15.45;;;2.25;;
30533;SDS011;17318;52.390;9.754;2022-12-07T09:10:24;12.35;;;1.55;;
30533;SDS011;17318;52.390;9.754;2022-12-07T09:12:50;6.10;;;1.48;;
30533;SDS011;17318;52.390;9.754;2022-12-07T09:15:17;5.30;;;1.40;;
30533;SDS011;17318;52.390;9.754;2022-12-07T09:17:42;6.53;;;1.23;;
30533;SDS011;17318;52.390;9.754;2022-12-07T09:20:08;5.80;;;1.75;;
30533;SDS011;17318;52.390;9.754;2022-12-07T09:22:34;6.55;;;1.35;;
30533;SDS011;17318;52.390;9.754;2022-12-07T09:25:00;4.70;;;1.48;;
30533;SDS011;17318;52.390;9.754;2022-12-07T09:27:27;5.53;;;1.10;;
30533;SDS011;17318;52.390;9.754;2022-12-07T09:29:53;4.32;;;1.05;;
30533;SDS011;17318;52.390;9.754;2022-12-07T09:32:19;5.75;;;1.33;;
30533;SDS011;17318;52.390;9.754;2022-12-07T09:34:45;3.58;;;1.35;;
30533;SDS011;17318;52.390;9.754;2022-12-07T09:37:11;7.30;;;1.30;;
30533;SDS011;17318;52.390;9.754;2022-12-07T09:39:40;5.28;;;1.42;;
30533;SDS011;17318;52.390;9.754;2022-12-07T09:42:06;6.57;;;0.88;;
30533;SDS011;17318;52.390;9.754;2022-12-07T09:44:33;5.68;;;1.25;;
30533;SDS011;17318;52.390;9.754;2022-12-07T09:47:00;5.35;;;1.20;;
30533;SDS011;17318;52.390;9.754;2022-12-07T09:49:27;4.28;;;1.10;;
30533;SDS011;17318;52.390;9.754;2022-12-07T09:52:00;7.85;;;1.20;;
30533;SDS011;17318;52.390;9.754;2022-12-07T09:54:26;5.45;;;1.23;;
30533;SDS011;17318;52.390;9.754;2022-12-07T09:56:52;6.43;;;1.55;;
30533;SDS011;17318;52.390;9.754;2022-12-07T09:59:18;4.22;;;0.90;;
30533;SDS011;17318;52.390;9.754;2022-12-07T10:01:44;7.60;;;1.25;;
30533;SDS011;17318;52.390;9.754;2022-12-07T10:04:20;5.35;;;1.10;;
30533;SDS011;17318;52.390;9.754;2022-12-07T10:06:47;4.95;;;0.98;;
30533;SDS011;17318;52.390;9.754;2022-12-07T10:14:39;10.48;;;1.35;;
30533;SDS011;17318;52.390;9.754;2022-12-07T10:19:50;9.35;;;1.27;;
30533;SDS011;17318;52.390;9.754;2022-12-07T10:22:16;5.78;;;1.48;;
30533;SDS011;17318;52.390;9.754;2022-12-07T10:24:43;6.93;;;1.08;;
30533;SDS011;17318;52.390;9.754;2022-12-07T10:29:56;7.38;;;1.25;;
30533;SDS011;17318;52.390;9.754;2022-12-07T10:37:49;6.72;;;1.40;;
30533;SDS011;17318;52.390;9.754;2022-12-07T10:40:30;3.58;;;1.25;;
30533;SDS011;17318;52.390;9.754;2022-12-07T10:43:02;8.18;;;1.33;;
30533;SDS011;17318;52.390;9.754;2022-12-07T10:51:22;7.72;;;1.33;;
30533;SDS011;17318;52.390;9.754;2022-12-07T10:54:12;7.85;;;1.58;;
30533;SDS011;17318;52.390;9.754;2022-12-07T11:26:41;4.25;;;0.93;;
30533;SDS011;17318;52.390;9.754;2022-12-07T11:37:32;2.13;;;0.77;;
30533;SDS011;17318;52.390;9.754;2022-12-07T11:40:02;3.88;;;0.90;;
30533;SDS011;17318;52.390;9.754;2022-12-07T11:42:42;6.00;;;1.13;;
30533;SDS011;17318;52.390;9.754;2022-12-07T11:45:29;6.90;;;1.48;;
30533;SDS011;17318;52.390;9.754;2022-12-07T11:50:27;4.80;;;1.15;;
30533;SDS011;17318;52.390;9.754;2022-12-07T11:53:25;2.40;;;1.10;;
30533;SDS011;17318;52.390;9.754;2022-12-07T12:03:58;5.72;;;1.40;;
30533;SDS011;17318;52.390;9.754;2022-12-07T12:06:35;5.10;;;1.25;;
30533;SDS011;17318;52.390;9.754;2022-12-07T12:14:41;10.52;;;2.38;;
30533;SDS011;17318;52.390;9.754;2022-12-07T12:17:32;7.55;;;2.10;;
30533;SDS011;17318;52.390;9.754;2022-12-07T12:22:52;8.18;;;1.70;;
30533;SDS011;17318;52.390;9.754;2022-12-07T12:25:20;7.18;;;1.77;;
30533;SDS011;17318;52.390;9.754;2022-12-07T12:27:51;5.88;;;1.33;;
30533;SDS011;17318;52.390;9.754;2022-12-07T12:33:06;5.22;;;1.58;;
30533;SDS011;17318;52.390;9.754;2022-12-07T12:35:41;9.07;;;1.65;;
30533;SDS011;17318;52.390;9.754;2022-12-07T12:38:47;9.98;;;1.85;;
30533;SDS011;17318;52.390;9.754;2022-12-07T12:41:50;6.78;;;1.70;;
30533;SDS011;17318;52.390;9.754;2022-12-07T12:47:38;8.13;;;1.67;;
30533;SDS011;17318;52.390;9.754;2022-12-07T12:50:20;6.60;;;1.83;;
30533;SDS011;17318;52.390;9.754;2022-12-07T12:52:49;13.43;;;2.10;;
30533;SDS011;17318;52.390;9.754;2022-12-07T12:58:32;6.90;;;1.90;;
30533;SDS011;17318;52.390;9.754;2022-12-07T13:04:00;9.85;;;2.30;;
30533;SDS011;17318;52.390;9.754;2022-12-07T13:08:53;9.05;;;2.03;;
30533;SDS011;17318;52.390;9.754;2022-12-07T13:11:35;7.88;;;2.05;;
30533;SDS011;17318;52.390;9.754;2022-12-07T13:19:56;10.63;;;2.20;;
30533;SDS011;17318;52.390;9.754;2022-12-07T13:24:59;6.28;;;2.13;;
30533;SDS011;17318;52.390;9.754;2022-12-07T13:27:34;8.45;;;1.80;;
30533;SDS011;17318;52.390;9.754;2022-12-07T13:30:09;6.90;;;1.77;;
30533;SDS011;17318;52.390;9.754;2022-12-07T13:32:43;7.82;;;1.80;;
30533;SDS011;17318;52.390;9.754;2022-12-07T13:37:56;15.75;;;2.28;;
30533;SDS011;17318;52.390;9.754;2022-12-07T13:40:23;5.85;;;1.83;;
30533;SDS011;17318;52.390;9.754;2022-12-07T13:42:56;18.27;;;3.10;;
30533;SDS011;17318;52.390;9.754;2022-12-07T13:48:30;13.70;;;2.25;;
30533;SDS011;17318;52.390;9.754;2022-12-07T13:50:58;8.70;;;1.63;;
30533;SDS011;17318;52.390;9.754;2022-12-07T13:53:26;18.20;;;1.65;;
30533;SDS011;17318;52.390;9.754;2022-12-07T13:55:58;9.93;;;1.73;;
30533;SDS011;17318;52.390;9.754;2022-12-07T13:58:25;14.98;;;1.70;;
30533;SDS011;17318;52.390;9.754;2022-12-07T14:00:54;9.18;;;2.15;;
30533;SDS011;17318;52.390;9.754;2022-12-07T14:03:34;9.77;;;1.73;;
30533;SDS011;17318;52.390;9.754;2022-12-07T14:08:34;8.18;;;1.90;;
30533;SDS011;17318;52.390;9.754;2022-12-07T14:10:59;8.38;;;1.70;;
30533;SDS011;17318;52.390;9.754;2022-12-07T14:13:33;7.28;;;1.52;;
30533;SDS011;17318;52.390;9.754;2022-12-07T14:16:01;11.93;;;1.80;;
30533;SDS011;17318;52.390;9.754;2022-12-07T14:18:38;4.93;;;1.60;;
30533;SDS011;17318;52.390;9.754;2022-12-07T14:21:13;6.33;;;1.83;;
30533;SDS011;17318;52.390;9.754;2022-12-07T14:26:35;44.78;;;17.15;;
30533;SDS011;17318;52.390;9.754;2022-12-07T14:31:45;9.02;;;1.75;;
30533;SDS011;17318;52.390;9.754;2022-12-07T14:34:14;7.18;;;2.13;;
30533;SDS011;17318;52.390;9.754;2022-12-07T14:36:39;4.93;;;1.73;;
30533;SDS011;17318;52.390;9.754;2022-12-07T14:39:06;10.23;;;1.70;;
30533;SDS011;17318;52.390;9.754;2022-12-07T14:41:32;12.70;;;3.03;;
30533;SDS011;17318;52.390;9.754;2022-12-07T14:44:16;12.95;;;1.80;;
30533;SDS011;17318;52.390;9.754;2022-12-07T14:46:43;5.80;;;1.58;;
30533;SDS011;17318;52.390;9.754;2022-12-07T14:49:09;8.77;;;2.55;;
30533;SDS011;17318;52.390;9.754;2022-12-07T14:51:36;8.90;;;2.40;;
30533;SDS011;17318;52.390;9.754;2022-12-07T14:54:04;9.32;;;2.40;;
30533;SDS011;17318;52.390;9.754;2022-12-07T14:56:31;12.25;;;1.40;;
30533;SDS011;17318;52.390;9.754;2022-12-07T14:58:57;8.35;;;1.85;;
30533;SDS011;17318;52.390;9.754;2022-12-07T15:01:23;11.65;;;1.90;;
30533;SDS011;17318;52.390;9.754;2022-12-07T15:03:48;11.07;;;1.70;;
30533;SDS011;17318;52.390;9.754;2022-12-07T15:06:15;14.00;;;1.90;;
30533;SDS011;17318;52.390;9.754;2022-12-07T15:08:43;8.02;;;2.08;;
30533;SDS011;17318;52.390;9.754;2022-12-07T15:11:12;18.83;;;5.90;;
30533;SDS011;17318;52.390;9.754;2022-12-07T15:13:41;9.60;;;2.17;;
30533;SDS011;17318;52.390;9.754;2022-12-07T15:16:26;7.82;;;1.77;;
30533;SDS011;17318;52.390;9.754;2022-12-07T15:18:52;7.40;;;2.15;;
30533;SDS011;17318;52.390;9.754;2022-12-07T15:21:17;14.15;;;2.53;;
30533;SDS011;17318;52.390;9.754;2022-12-07T15:23:43;9.80;;;2.33;;
30533;SDS011;17318;52.390;9.754;2022-12-07T15:26:10;16.65;;;3.00;;
30533;SDS011;17318;52.390;9.754;2022-12-07T15:28:36;14.60;;;2.30;;
30533;SDS011;17318;52.390;9.754;2022-12-07T15:31:02;20.58;;;5.65;;
30533;SDS011;17318;52.390;9.754;2022-12-07T15:33:28;7.47;;;2.22;;
30533;SDS011;17318;52.390;9.754;2022-12-07T15:35:53;9.02;;;2.33;;
30533;SDS011;17318;52.390;9.754;2022-12-07T15:38:19;13.70;;;2.53;;
30533;SDS011;17318;52.390;9.754;2022-12-07T15:40:48;8.00;;;2.40;;
30533;SDS011;17318;52.390;9.754;2022-12-07T15:43:13;15.70;;;2.35;;
30533;SDS011;17318;52.390;9.754;2022-12-07T15:45:58;7.88;;;2.25;;
30533;SDS011;17318;52.390;9.754;2022-12-07T15:48:24;6.57;;;2.05;;
30533;SDS011;17318;52.390;9.754;2022-12-07T15:50:50;10.07;;;2.25;;
30533;SDS011;17318;52.390;9.754;2022-12-07T15:53:16;15.25;;;3.53;;
30533;SDS011;17318;52.390;9.754;2022-12-07T15:55:42;9.85;;;3.00;;
30533;SDS011;17318;52.390;9.754;2022-12-07T15:58:08;12.43;;;2.90;;
30533;SDS011;17318;52.390;9.754;2022-12-07T16:00:33;8.88;;;2.20;;
30533;SDS011;17318;52.390;9.754;2022-12-07T16:02:59;13.98;;;2.75;;
30533;SDS011;17318;52.390;9.754;2022-12-07T16:05:25;7.30;;;3.03;;
30533;SDS011;17318;52.390;9.754;2022-12-07T16:07:51;14.23;;;2.55;;
30533;SDS011;17318;52.390;9.754;2022-12-07T16:10:16;7.97;;;2.10;;
30533;SDS011;17318;52.390;9.754;2022-12-07T16:12:42;12.45;;;2.65;;
30533;SDS011;17318;52.390;9.754;2022-12-07T16:15:08;5.38;;;2.00;;
30533;SDS011;17318;52.390;9.754;2022-12-07T16:17:34;14.50;;;4.53;;
30533;SDS011;17318;52.390;9.754;2022-12-07T16:20:00;6.32;;;2.85;;
30533;SDS011;17318;52.390;9.754;2022-12-07T16:22:26;14.75;;;3.10;;
30533;SDS011;17318;52.390;9.754;2022-12-07T16:24:51;16.52;;;3.38;;
30533;SDS011;17318;52.390;9.754;2022-12-07T16:27:17;11.10;;;3.40;;
30533;SDS011;17318;52.390;9.754;2022-12-07T16:29:42;12.23;;;3.40;;
30533;SDS011;17318;52.390;9.754;2022-12-07T16:32:08;6.47;;;3.00;;
30533;SDS011;17318;52.390;9.754;2022-12-07T16:34:34;15.27;;;3.70;;
30533;SDS011;17318;52.390;9.754;2022-12-07T16:37:00;14.65;;;3.60;;
30533;SDS011;17318;52.390;9.754;2022-12-07T16:39:25;11.13;;;3.38;;
30533;SDS011;17318;52.390;9.754;2022-12-07T16:41:51;15.90;;;4.18;;
30533;SDS011;17318;52.390;9.754;2022-12-07T16:44:17;15.63;;;3.45;;
30533;SDS011;17318;52.390;9.754;2022-12-07T16:46:43;16.35;;;4.82;;
30533;SDS011;17318;52.390;9.754;2022-12-07T16:49:13;14.13;;;3.90;;
30533;SDS011;17318;52.390;9.754;2022-12-07T16:51:42;15.23;;;4.30;;
30533;SDS011;17318;52.390;9.754;2022-12-07T16:54:09;18.55;;;4.55;;
30533;SDS011;17318;52.390;9.754;2022-12-07T16:56:37;13.50;;;4.80;;
30533;SDS011;17318;52.390;9.754;2022-12-07T16:59:03;9.00;;;3.95;;
30533;SDS011;17318;52.390;9.754;2022-12-07T17:01:29;13.32;;;3.35;;
30533;SDS011;17318;52.390;9.754;2022-12-07T17:03:56;17.13;;;5.97;;
30533;SDS011;17318;52.390;9.754;2022-12-07T17:06:25;10.10;;;3.45;;
30533;SDS011;17318;52.390;9.754;2022-12-07T17:08:52;14.90;;;4.82;;